sensor_id;sensor_type;location;lat;lon;timestamp;pressure;altitude;pressure_sealevel;temperature;humidity
12626;BME280;6378;42.684;23.372;2023-07-29T00:00:33;94932.53;;;22.44;97.14
12626;BME280;6378;42.684;23.372;2023-07-29T00:02:58;94910.88;;;22.14;95.78
12626;BME280;6378;42.684;23.372;2023-07-29T00:05:24;94924.63;;;22.10;99.36
12626;BME280;6378;42.684;23.372;2023-07-29T00:07:49;94925.06;;;22.09;98.45
12626;BME280;6378;42.684;23.372;2023-07-29T00:10:15;94930.78;;;22.34;97.81
12626;BME280;6378;42.684;23.372;2023-07-29T00:12:41;94934.47;;;22.47;96.30
12626;BME280;6378;42.684;23.372;2023-07-29T00:15:07;94920.66;;;22.70;92.67
12626;BME280;6378;42.684;23.372;2023-07-29T00:17:33;94932.50;;;22.64;92.94
12626;BME280;6378;42.684;23.372;2023-07-29T00:19:58;94943.06;;;22.85;91.00
12626;BME280;6378;42.684;23.372;2023-07-29T00:22:23;94943.50;;;22.64;92.49
12626;BME280;6378;42.684;23.372;2023-07-29T00:24:52;94941.88;;;22.66;92.63
12626;BME280;6378;42.684;23.372;2023-07-29T00:27:22;94926.00;;;22.58;92.26
12626;BME280;6378;42.684;23.372;2023-07-29T00:29:48;94921.38;;;22.35;93.10
12626;BME280;6378;42.684;23.372;2023-07-29T00:32:13;94937.84;;;22.35;95.17
12626;BME280;6378;42.684;23.372;2023-07-29T00:34:38;94934.75;;;22.33;95.83
12626;BME280;6378;42.684;23.372;2023-07-29T00:37:04;94913.16;;;22.15;96.89
12626;BME280;6378;42.684;23.372;2023-07-29T00:39:34;94915.50;;;22.17;97.43
12626;BME280;6378;42.684;23.372;2023-07-29T00:41:59;94931.38;;;22.06;100.00
12626;BME280;6378;42.684;23.372;2023-07-29T00:44:25;94926.28;;;21.84;100.00
12626;BME280;6378;42.684;23.372;2023-07-29T00:46:52;94925.56;;;21.80;100.00
12626;BME280;6378;42.684;23.372;2023-07-29T00:49:19;94907.56;;;21.59;100.00
12626;BME280;6378;42.684;23.372;2023-07-29T00:51:46;94921.47;;;21.45;100.00
12626;BME280;6378;42.684;23.372;2023-07-29T00:54:12;94908.00;;;21.35;100.00
12626;BME280;6378;42.684;23.372;2023-07-29T00:56:37;94925.31;;;21.01;100.00
12626;BME280;6378;42.684;23.372;2023-07-29T00:59:03;94909.53;;;20.59;100.00
12626;BME280;6378;42.684;23.372;2023-07-29T01:01:30;94918.75;;;20.72;100.00
12626;BME280;6378;42.684;23.372;2023-07-29T01:03:55;94894.75;;;20.53;100.00
12626;BME280;6378;42.684;23.372;2023-07-29T01:09:09;94910.25;;;20.63;100.00
12626;BME280;6378;42.684;23.372;2023-07-29T01:17:00;94919.25;;;20.29;100.00
12626;BME280;6378;42.684;23.372;2023-07-29T01:19:59;94923.50;;;20.38;100.00
12626;BME280;6378;42.684;23.372;2023-07-29T01:22:26;94922.81;;;20.26;100.00
12626;BME280;6378;42.684;23.372;2023-07-29T01:24:52;94927.31;;;20.44;100.00
12626;BME280;6378;42.684;23.372;2023-07-29T01:27:18;94920.00;;;20.64;100.00
12626;BME280;6378;42.684;23.372;2023-07-29T01:29:43;94896.09;;;20.68;100.00
12626;BME280;6378;42.684;23.372;2023-07-29T01:32:17;94910.25;;;20.63;100.00
12626;BME280;6378;42.684;23.372;2023-07-29T01:35:03;94906.19;;;20.74;100.00
12626;BME280;6378;42.684;23.372;2023-07-29T01:37:32;94829.91;;;20.26;100.00
12626;BME280;6378;42.684;23.372;2023-07-29T01:39:59;94923.38;;;20.75;100.00
12626;BME280;6378;42.684;23.372;2023-07-29T01:42:25;94916.09;;;20.65;100.00
12626;BME280;6378;42.684;23.372;2023-07-29T01:44:52;94916.34;;;20.47;100.00
12626;BME280;6378;42.684;23.372;2023-07-29T01:47:17;94908.16;;;20.47;100.00
12626;BME280;6378;42.684;23.372;2023-07-29T01:49:43;94911.91;;;20.57;100.00
12626;BME280;6378;42.684;23.372;2023-07-29T01:52:08;94915.31;;;20.64;100.00
12626;BME280;6378;42.684;23.372;2023-07-29T01:54:34;94899.03;;;20.57;100.00
12626;BME280;6378;42.684;23.372;2023-07-29T01:56:59;94894.41;;;20.51;100.00
12626;BME280;6378;42.684;23.372;2023-07-29T01:59:24;94902.31;;;20.45;100.00
12626;BME280;6378;42.684;23.372;2023-07-29T02:01:50;94918.19;;;20.54;100.00
12626;BME280;6378;42.684;23.372;2023-07-29T02:04:15;94918.63;;;20.52;100.00
12626;BME280;6378;42.684;23.372;2023-07-29T02:06:40;94892.00;;;20.26;100.00
12626;BME280;6378;42.684;23.372;2023-07-29T02:09:06;94919.19;;;20.67;100.00
12626;BME280;6378;42.684;23.372;2023-07-29T02:11:31;94932.66;;;20.81;100.00
12626;BME280;6378;42.684;23.372;2023-07-29T02:13:57;94928.16;;;20.67;100.00
12626;BME280;6378;42.684;23.372;2023-07-29T02:16:23;94910.25;;;20.36;100.00
12626;BME280;6378;42.684;23.372;2023-07-29T02:18:49;94926.97;;;20.38;100.00
12626;BME280;6378;42.684;23.372;2023-07-29T02:21:15;94930.16;;;20.37;100.00
12626;BME280;6378;42.684;23.372;2023-07-29T02:23:41;94925.78;;;20.43;100.00
12626;BME280;6378;42.684;23.372;2023-07-29T02:26:06;94898.94;;;20.34;100.00
12626;BME280;6378;42.684;23.372;2023-07-29T02:28:31;94862.47;;;20.14;100.00
12626;BME280;6378;42.684;23.372;2023-07-29T02:33:44;94929.84;;;20.27;100.00
12626;BME280;6378;42.684;23.372;2023-07-29T02:36:11;94927.66;;;20.15;100.00
12626;BME280;6378;42.684;23.372;2023-07-29T02:38:37;94929.56;;;20.18;100.00
12626;BME280;6378;42.684;23.372;2023-07-29T02:41:02;94918.00;;;20.04;100.00
12626;BME280;6378;42.684;23.372;2023-07-29T02:43:28;94915.13;;;20.18;100.00
12626;BME280;6378;42.684;23.372;2023-07-29T02:45:53;94929.09;;;20.23;100.00
12626;BME280;6378;42.684;23.372;2023-07-29T02:48:18;94923.81;;;20.09;100.00
12626;BME280;6378;42.684;23.372;2023-07-29T02:50:44;94925.56;;;20.26;100.00
12626;BME280;6378;42.684;23.372;2023-07-29T02:53:09;94932.84;;;20.40;100.00
12626;BME280;6378;42.684;23.372;2023-07-29T02:55:35;94926.56;;;20.70;100.00
12626;BME280;6378;42.684;23.372;2023-07-29T02:58:00;94933.31;;;20.89;100.00
12626;BME280;6378;42.684;23.372;2023-07-29T03:00:26;94878.09;;;20.70;100.00
12626;BME280;6378;42.684;23.372;2023-07-29T03:02:51;94906.34;;;20.64;100.00
12626;BME280;6378;42.684;23.372;2023-07-29T03:05:16;94939.94;;;20.91;100.00
12626;BME280;6378;42.684;23.372;2023-07-29T03:07:42;94939.88;;;20.68;100.00
12626;BME280;6378;42.684;23.372;2023-07-29T03:10:07;94946.88;;;20.42;100.00
12626;BME280;6378;42.684;23.372;2023-07-29T03:12:33;94952.75;;;20.41;100.00
12626;BME280;6378;42.684;23.372;2023-07-29T03:14:58;94961.72;;;20.07;100.00
12626;BME280;6378;42.684;23.372;2023-07-29T03:17:25;94959.72;;;20.11;100.00
12626;BME280;6378;42.684;23.372;2023-07-29T03:19:51;94954.69;;;20.06;100.00
12626;BME280;6378;42.684;23.372;2023-07-29T03:22:17;94954.41;;;19.97;100.00
12626;BME280;6378;42.684;23.372;2023-07-29T03:24:42;94942.97;;;20.06;100.00
12626;BME280;6378;42.684;23.372;2023-07-29T03:27:08;94945.81;;;19.95;100.00
12626;BME280;6378;42.684;23.372;2023-07-29T03:29:35;94937.13;;;19.70;100.00
12626;BME280;6378;42.684;23.372;2023-07-29T03:32:00;94952.75;;;19.69;100.00
12626;BME280;6378;42.684;23.372;2023-07-29T03:34:26;94935.34;;;19.94;100.00
12626;BME280;6378;42.684;23.372;2023-07-29T03:36:51;94958.41;;;20.57;100.00
12626;BME280;6378;42.684;23.372;2023-07-29T03:39:16;94936.94;;;20.82;100.00
12626;BME280;6378;42.684;23.372;2023-07-29T03:41:42;94942.09;;;21.30;100.00
12626;BME280;6378;42.684;23.372;2023-07-29T03:44:07;94955.22;;;21.85;100.00
12626;BME280;6378;42.684;23.372;2023-07-29T03:46:33;94963.88;;;22.27;96.32
12626;BME280;6378;42.684;23.372;2023-07-29T03:48:58;94960.91;;;22.57;93.77
12626;BME280;6378;42.684;23.372;2023-07-29T03:51:24;94960.69;;;23.04;90.71
12626;BME280;6378;42.684;23.372;2023-07-29T03:53:50;94966.38;;;23.61;82.89
12626;BME280;6378;42.684;23.372;2023-07-29T03:56:15;94967.94;;;24.24;76.79
12626;BME280;6378;42.684;23.372;2023-07-29T03:58:41;94945.00;;;24.43;73.71
12626;BME280;6378;42.684;23.372;2023-07-29T04:01:06;94940.22;;;24.97;65.87
12626;BME280;6378;42.684;23.372;2023-07-29T04:03:35;94954.66;;;25.39;63.74
12626;BME280;6378;42.684;23.372;2023-07-29T04:06:01;94956.00;;;25.10;65.67
12626;BME280;6378;42.684;23.372;2023-07-29T04:08:26;94956.22;;;24.48;70.87
12626;BME280;6378;42.684;23.372;2023-07-29T04:10:52;94958.22;;;24.48;72.86
12626;BME280;6378;42.684;23.372;2023-07-29T04:13:17;94966.41;;;24.35;72.66
12626;BME280;6378;42.684;23.372;2023-07-29T04:15:43;94967.91;;;25.07;68.30
12626;BME280;6378;42.684;23.372;2023-07-29T04:18:08;94969.88;;;25.57;64.53
12626;BME280;6378;42.684;23.372;2023-07-29T04:20:33;94973.06;;;25.68;62.90
12626;BME280;6378;42.684;23.372;2023-07-29T04:22:59;94953.84;;;25.52;62.02
12626;BME280;6378;42.684;23.372;2023-07-29T04:25:25;94970.84;;;25.63;62.30
12626;BME280;6378;42.684;23.372;2023-07-29T04:27:50;94957.53;;;25.11;62.98
12626;BME280;6378;42.684;23.372;2023-07-29T04:30:15;94964.69;;;25.59;62.03
12626;BME280;6378;42.684;23.372;2023-07-29T04:32:41;94968.88;;;25.63;60.51
12626;BME280;6378;42.684;23.372;2023-07-29T04:35:08;94947.47;;;26.36;55.18
12626;BME280;6378;42.684;23.372;2023-07-29T04:37:34;94965.75;;;26.64;54.51
12626;BME280;6378;42.684;23.372;2023-07-29T04:39:59;94965.97;;;27.01;51.92
12626;BME280;6378;42.684;23.372;2023-07-29T04:42:24;94969.75;;;26.42;54.44
12626;BME280;6378;42.684;23.372;2023-07-29T04:44:50;94977.28;;;26.94;52.41
12626;BME280;6378;42.684;23.372;2023-07-29T04:47:15;94966.63;;;27.05;51.47
12626;BME280;6378;42.684;23.372;2023-07-29T04:49:40;94976.75;;;27.48;50.49
12626;BME280;6378;42.684;23.372;2023-07-29T04:52:06;94973.69;;;27.06;51.38
12626;BME280;6378;42.684;23.372;2023-07-29T04:54:32;94980.88;;;27.92;48.66
12626;BME280;6378;42.684;23.372;2023-07-29T04:56:57;94978.13;;;27.92;48.04
12626;BME280;6378;42.684;23.372;2023-07-29T04:59:22;94980.59;;;28.09;46.39
12626;BME280;6378;42.684;23.372;2023-07-29T05:01:48;94984.25;;;27.96;46.40
12626;BME280;6378;42.684;23.372;2023-07-29T05:04:14;94984.59;;;27.89;46.08
12626;BME280;6378;42.684;23.372;2023-07-29T05:06:39;94990.88;;;27.90;45.43
12626;BME280;6378;42.684;23.372;2023-07-29T05:09:18;94995.56;;;27.62;46.84
12626;BME280;6378;42.684;23.372;2023-07-29T05:11:44;94995.88;;;27.55;47.90
12626;BME280;6378;42.684;23.372;2023-07-29T05:14:14;95001.41;;;27.55;47.36
12626;BME280;6378;42.684;23.372;2023-07-29T05:16:40;95000.69;;;27.82;47.51
12626;BME280;6378;42.684;23.372;2023-07-29T05:19:05;94988.00;;;28.21;46.91
12626;BME280;6378;42.684;23.372;2023-07-29T05:21:30;94993.25;;;28.19;47.18
12626;BME280;6378;42.684;23.372;2023-07-29T05:23:56;95007.69;;;28.41;45.67
12626;BME280;6378;42.684;23.372;2023-07-29T05:26:22;94995.53;;;28.20;46.99
12626;BME280;6378;42.684;23.372;2023-07-29T05:28:48;94997.25;;;28.36;46.71
12626;BME280;6378;42.684;23.372;2023-07-29T05:31:13;94978.59;;;28.00;47.11
12626;BME280;6378;42.684;23.372;2023-07-29T05:33:38;95010.94;;;28.76;45.49
12626;BME280;6378;42.684;23.372;2023-07-29T05:36:04;95004.63;;;28.75;45.40
12626;BME280;6378;42.684;23.372;2023-07-29T05:38:30;95005.50;;;29.00;44.43
12626;BME280;6378;42.684;23.372;2023-07-29T05:40:55;95013.47;;;27.88;46.83
12626;BME280;6378;42.684;23.372;2023-07-29T05:43:21;95015.09;;;28.44;46.19
12626;BME280;6378;42.684;23.372;2023-07-29T05:45:46;95008.44;;;28.05;47.73
12626;BME280;6378;42.684;23.372;2023-07-29T05:48:11;95014.31;;;28.25;47.50
12626;BME280;6378;42.684;23.372;2023-07-29T05:50:37;95015.13;;;27.77;48.58
12626;BME280;6378;42.684;23.372;2023-07-29T05:53:02;95009.56;;;28.71;46.14
12626;BME280;6378;42.684;23.372;2023-07-29T05:55:27;95015.25;;;28.68;46.16
12626;BME280;6378;42.684;23.372;2023-07-29T05:57:53;95011.72;;;28.58;45.97
12626;BME280;6378;42.684;23.372;2023-07-29T06:00:20;95015.56;;;28.33;47.13
12626;BME280;6378;42.684;23.372;2023-07-29T06:02:45;95009.41;;;28.29;47.63
12626;BME280;6378;42.684;23.372;2023-07-29T06:05:10;95005.38;;;28.67;45.45
12626;BME280;6378;42.684;23.372;2023-07-29T06:07:36;95004.63;;;28.66;46.23
12626;BME280;6378;42.684;23.372;2023-07-29T06:10:01;95011.41;;;28.74;45.05
12626;BME280;6378;42.684;23.372;2023-07-29T06:12:27;95013.22;;;28.50;47.07
12626;BME280;6378;42.684;23.372;2023-07-29T06:14:52;95006.03;;;28.34;47.58
12626;BME280;6378;42.684;23.372;2023-07-29T06:17:18;95006.59;;;28.11;47.77
12626;BME280;6378;42.684;23.372;2023-07-29T06:19:43;95008.88;;;27.94;49.58
12626;BME280;6378;42.684;23.372;2023-07-29T06:22:09;95009.53;;;28.35;48.11
12626;BME280;6378;42.684;23.372;2023-07-29T06:24:35;95002.16;;;28.50;46.98
12626;BME280;6378;42.684;23.372;2023-07-29T06:27:00;94998.81;;;27.30;49.88
12626;BME280;6378;42.684;23.372;2023-07-29T06:29:26;94996.63;;;28.23;47.58
12626;BME280;6378;42.684;23.372;2023-07-29T06:31:51;95008.47;;;28.41;47.05
12626;BME280;6378;42.684;23.372;2023-07-29T06:34:17;94978.09;;;27.74;49.60
12626;BME280;6378;42.684;23.372;2023-07-29T06:36:43;94986.84;;;27.33;51.11
12626;BME280;6378;42.684;23.372;2023-07-29T06:39:09;94975.97;;;27.47;50.64
12626;BME280;6378;42.684;23.372;2023-07-29T06:41:34;94964.84;;;27.51;50.52
12626;BME280;6378;42.684;23.372;2023-07-29T06:44:00;94986.56;;;27.40;53.60
12626;BME280;6378;42.684;23.372;2023-07-29T06:46:25;94982.78;;;28.32;48.25
12626;BME280;6378;42.684;23.372;2023-07-29T06:48:51;94980.75;;;28.60;47.35
12626;BME280;6378;42.684;23.372;2023-07-29T06:51:16;94970.91;;;28.86;46.64
12626;BME280;6378;42.684;23.372;2023-07-29T06:53:42;94978.75;;;28.60;45.89
12626;BME280;6378;42.684;23.372;2023-07-29T06:56:07;94977.38;;;28.65;47.11
12626;BME280;6378;42.684;23.372;2023-07-29T06:58:34;94978.91;;;28.66;46.06
12626;BME280;6378;42.684;23.372;2023-07-29T07:01:00;94978.59;;;28.09;47.10
12626;BME280;6378;42.684;23.372;2023-07-29T07:03:25;94977.69;;;28.39;47.18
12626;BME280;6378;42.684;23.372;2023-07-29T07:05:51;94960.91;;;27.88;47.50
12626;BME280;6378;42.684;23.372;2023-07-29T07:08:16;94981.25;;;28.58;46.50
12626;BME280;6378;42.684;23.372;2023-07-29T07:10:41;94969.88;;;28.47;46.60
12626;BME280;6378;42.684;23.372;2023-07-29T07:13:07;94983.63;;;29.11;46.02
12626;BME280;6378;42.684;23.372;2023-07-29T07:15:32;94983.81;;;29.49;44.59
12626;BME280;6378;42.684;23.372;2023-07-29T07:17:58;94979.19;;;29.79;43.15
12626;BME280;6378;42.684;23.372;2023-07-29T07:20:23;94974.75;;;29.40;44.20
12626;BME280;6378;42.684;23.372;2023-07-29T07:22:48;94979.56;;;29.63;44.38
12626;BME280;6378;42.684;23.372;2023-07-29T07:25:14;94975.38;;;29.67;42.06
12626;BME280;6378;42.684;23.372;2023-07-29T07:27:39;94972.44;;;29.38;43.57
12626;BME280;6378;42.684;23.372;2023-07-29T07:30:05;94967.25;;;29.64;42.47
12626;BME280;6378;42.684;23.372;2023-07-29T07:32:31;94975.16;;;29.80;42.21
12626;BME280;6378;42.684;23.372;2023-07-29T07:34:56;94970.47;;;29.62;42.67
12626;BME280;6378;42.684;23.372;2023-07-29T07:37:21;94969.66;;;28.96;44.38
12626;BME280;6378;42.684;23.372;2023-07-29T07:39:47;94970.03;;;29.13;44.07
12626;BME280;6378;42.684;23.372;2023-07-29T07:42:12;94970.19;;;28.49;44.77
12626;BME280;6378;42.684;23.372;2023-07-29T07:44:38;94968.13;;;28.86;44.26
12626;BME280;6378;42.684;23.372;2023-07-29T07:47:03;94962.72;;;29.01;42.70
12626;BME280;6378;42.684;23.372;2023-07-29T07:49:28;94974.47;;;28.77;44.05
12626;BME280;6378;42.684;23.372;2023-07-29T07:51:54;94960.75;;;29.34;43.11
12626;BME280;6378;42.684;23.372;2023-07-29T07:54:19;94967.97;;;29.97;42.47
12626;BME280;6378;42.684;23.372;2023-07-29T07:56:45;94961.44;;;29.77;41.97
12626;BME280;6378;42.684;23.372;2023-07-29T07:59:10;94934.53;;;28.93;43.37
12626;BME280;6378;42.684;23.372;2023-07-29T08:01:37;94994.88;;;29.07;42.40
12626;BME280;6378;42.684;23.372;2023-07-29T08:04:03;94969.72;;;29.20;41.17
12626;BME280;6378;42.684;23.372;2023-07-29T08:06:29;94939.81;;;29.24;40.86
12626;BME280;6378;42.684;23.372;2023-07-29T08:08:54;94950.50;;;29.16;41.43
12626;BME280;6378;42.684;23.372;2023-07-29T08:11:20;94897.81;;;29.16;39.56
12626;BME280;6378;42.684;23.372;2023-07-29T08:13:45;94964.81;;;29.15;41.03
12626;BME280;6378;42.684;23.372;2023-07-29T08:16:12;94945.50;;;28.69;40.36
12626;BME280;6378;42.684;23.372;2023-07-29T08:18:37;94964.03;;;29.14;39.87
12626;BME280;6378;42.684;23.372;2023-07-29T08:21:03;94962.00;;;29.24;39.52
12626;BME280;6378;42.684;23.372;2023-07-29T08:23:33;94981.34;;;29.00;39.99
12626;BME280;6378;42.684;23.372;2023-07-29T08:26:04;94961.19;;;29.42;38.96
12626;BME280;6378;42.684;23.372;2023-07-29T08:28:36;94968.66;;;29.83;38.54
12626;BME280;6378;42.684;23.372;2023-07-29T08:31:01;94959.75;;;29.79;38.25
12626;BME280;6378;42.684;23.372;2023-07-29T08:33:27;94947.63;;;30.00;39.49
12626;BME280;6378;42.684;23.372;2023-07-29T08:35:53;94951.59;;;30.23;38.13
12626;BME280;6378;42.684;23.372;2023-07-29T08:38:19;94956.28;;;30.55;37.21
12626;BME280;6378;42.684;23.372;2023-07-29T08:41:09;94957.75;;;31.10;36.15
12626;BME280;6378;42.684;23.372;2023-07-29T08:43:38;94940.78;;;30.64;38.22
12626;BME280;6378;42.684;23.372;2023-07-29T08:46:04;94949.47;;;30.57;38.39
12626;BME280;6378;42.684;23.372;2023-07-29T08:48:36;94933.28;;;30.99;36.57
12626;BME280;6378;42.684;23.372;2023-07-29T08:51:05;94938.81;;;31.43;36.85
12626;BME280;6378;42.684;23.372;2023-07-29T08:53:31;94949.91;;;31.08;36.92
12626;BME280;6378;42.684;23.372;2023-07-29T08:55:58;94942.63;;;31.11;36.10
12626;BME280;6378;42.684;23.372;2023-07-29T08:58:24;94929.84;;;30.75;37.18
12626;BME280;6378;42.684;23.372;2023-07-29T09:00:50;94937.41;;;30.74;35.80
12626;BME280;6378;42.684;23.372;2023-07-29T09:03:15;94930.81;;;31.01;42.41
12626;BME280;6378;42.684;23.372;2023-07-29T09:05:41;94927.44;;;31.76;36.49
12626;BME280;6378;42.684;23.372;2023-07-29T09:08:06;94921.16;;;32.01;34.76
12626;BME280;6378;42.684;23.372;2023-07-29T09:10:36;94924.34;;;31.74;32.77
12626;BME280;6378;42.684;23.372;2023-07-29T09:13:03;94915.59;;;31.81;31.10
12626;BME280;6378;42.684;23.372;2023-07-29T09:15:33;94929.50;;;32.01;31.49
12626;BME280;6378;42.684;23.372;2023-07-29T09:17:59;94924.91;;;31.78;30.92
12626;BME280;6378;42.684;23.372;2023-07-29T09:20:33;94928.81;;;31.02;31.89
12626;BME280;6378;42.684;23.372;2023-07-29T09:22:59;94922.00;;;31.17;32.11
12626;BME280;6378;42.684;23.372;2023-07-29T09:25:29;94914.72;;;30.61;33.14
12626;BME280;6378;42.684;23.372;2023-07-29T09:28:01;94917.25;;;30.35;33.21
12626;BME280;6378;42.684;23.372;2023-07-29T09:30:27;94905.97;;;29.77;34.62
12626;BME280;6378;42.684;23.372;2023-07-29T09:32:57;94909.94;;;29.61;34.20
12626;BME280;6378;42.684;23.372;2023-07-29T09:35:23;94896.59;;;29.74;34.09
12626;BME280;6378;42.684;23.372;2023-07-29T09:37:50;94905.81;;;30.04;34.42
12626;BME280;6378;42.684;23.372;2023-07-29T09:40:17;94904.13;;;30.36;32.87
12626;BME280;6378;42.684;23.372;2023-07-29T09:42:54;94904.75;;;30.69;32.25
12626;BME280;6378;42.684;23.372;2023-07-29T09:45:24;94905.22;;;30.82;31.60
12626;BME280;6378;42.684;23.372;2023-07-29T09:47:49;94897.38;;;30.66;32.01
12626;BME280;6378;42.684;23.372;2023-07-29T09:50:15;94890.78;;;30.78;31.64
12626;BME280;6378;42.684;23.372;2023-07-29T09:52:41;94878.19;;;30.97;28.88
12626;BME280;6378;42.684;23.372;2023-07-29T09:55:07;94874.63;;;31.12;28.59
12626;BME280;6378;42.684;23.372;2023-07-29T09:57:32;94879.00;;;31.18;29.80
12626;BME280;6378;42.684;23.372;2023-07-29T09:59:58;94884.63;;;31.38;30.11
12626;BME280;6378;42.684;23.372;2023-07-29T10:02:24;94888.38;;;31.70;30.41
12626;BME280;6378;42.684;23.372;2023-07-29T10:04:54;94892.25;;;30.94;30.13
12626;BME280;6378;42.684;23.372;2023-07-29T10:07:20;94884.97;;;31.26;29.88
12626;BME280;6378;42.684;23.372;2023-07-29T10:09:46;94884.69;;;31.59;30.14
12626;BME280;6378;42.684;23.372;2023-07-29T10:12:13;94874.31;;;32.00;30.83
12626;BME280;6378;42.684;23.372;2023-07-29T10:14:38;94887.16;;;32.38;28.86
12626;BME280;6378;42.684;23.372;2023-07-29T10:17:07;94879.50;;;32.33;27.87
12626;BME280;6378;42.684;23.372;2023-07-29T10:19:34;94872.94;;;31.90;28.36
12626;BME280;6378;42.684;23.372;2023-07-29T10:22:02;94876.09;;;32.03;29.20
12626;BME280;6378;42.684;23.372;2023-07-29T10:24:32;94870.97;;;32.16;28.97
12626;BME280;6378;42.684;23.372;2023-07-29T10:26:59;94857.50;;;32.35;29.39
12626;BME280;6378;42.684;23.372;2023-07-29T10:29:30;94861.25;;;32.32;28.76
12626;BME280;6378;42.684;23.372;2023-07-29T10:31:57;94831.38;;;32.32;28.41
12626;BME280;6378;42.684;23.372;2023-07-29T10:34:26;94852.31;;;32.48;28.42
12626;BME280;6378;42.684;23.372;2023-07-29T10:36:52;94851.97;;;32.66;28.27
12626;BME280;6378;42.684;23.372;2023-07-29T10:39:18;94840.34;;;32.67;27.96
12626;BME280;6378;42.684;23.372;2023-07-29T10:42:00;94848.56;;;32.56;28.47
12626;BME280;6378;42.684;23.372;2023-07-29T10:47:28;94839.28;;;31.53;28.58
12626;BME280;6378;42.684;23.372;2023-07-29T10:49:58;94836.66;;;31.84;28.57
12626;BME280;6378;42.684;23.372;2023-07-29T10:54:59;94830.22;;;31.37;28.57
12626;BME280;6378;42.684;23.372;2023-07-29T10:57:35;94828.97;;;31.18;28.42
12626;BME280;6378;42.684;23.372;2023-07-29T11:00:02;94819.63;;;30.86;28.81
12626;BME280;6378;42.684;23.372;2023-07-29T11:02:37;94819.59;;;31.16;28.99
12626;BME280;6378;42.684;23.372;2023-07-29T11:05:21;94813.06;;;31.39;28.42
12626;BME280;6378;42.684;23.372;2023-07-29T11:07:47;94812.38;;;31.44;28.68
12626;BME280;6378;42.684;23.372;2023-07-29T11:10:14;94806.84;;;31.09;28.27
12626;BME280;6378;42.684;23.372;2023-07-29T11:15:21;94805.69;;;30.37;28.91
12626;BME280;6378;42.684;23.372;2023-07-29T11:20:15;94801.97;;;31.04;28.30
12626;BME280;6378;42.684;23.372;2023-07-29T11:22:41;94814.13;;;31.42;28.25
12626;BME280;6378;42.684;23.372;2023-07-29T11:25:09;94805.63;;;31.30;28.59
12626;BME280;6378;42.684;23.372;2023-07-29T11:27:35;94811.47;;;31.32;28.35
12626;BME280;6378;42.684;23.372;2023-07-29T11:30:12;94803.00;;;31.42;27.56
12626;BME280;6378;42.684;23.372;2023-07-29T11:32:39;94787.03;;;31.02;28.84
12626;BME280;6378;42.684;23.372;2023-07-29T11:35:06;94804.56;;;31.28;29.16
12626;BME280;6378;42.684;23.372;2023-07-29T11:37:36;94796.44;;;31.45;29.32
12626;BME280;6378;42.684;23.372;2023-07-29T11:40:02;94794.91;;;31.44;27.94
12626;BME280;6378;42.684;23.372;2023-07-29T11:42:28;94783.44;;;31.36;28.06
12626;BME280;6378;42.684;23.372;2023-07-29T11:44:57;94787.25;;;31.38;28.83
12626;BME280;6378;42.684;23.372;2023-07-29T11:47:23;94789.22;;;31.73;28.49
12626;BME280;6378;42.684;23.372;2023-07-29T11:49:48;94722.41;;;31.27;28.09
12626;BME280;6378;42.684;23.372;2023-07-29T11:52:14;94779.28;;;31.46;28.61
12626;BME280;6378;42.684;23.372;2023-07-29T11:54:39;94786.63;;;31.90;29.12
12626;BME280;6378;42.684;23.372;2023-07-29T11:57:08;94777.34;;;31.98;27.94
12626;BME280;6378;42.684;23.372;2023-07-29T11:59:35;94785.88;;;31.89;26.99
12626;BME280;6378;42.684;23.372;2023-07-29T12:02:02;94789.91;;;31.88;27.09
12626;BME280;6378;42.684;23.372;2023-07-29T12:04:30;94780.84;;;31.93;26.87
12626;BME280;6378;42.684;23.372;2023-07-29T12:06:56;94770.69;;;31.90;26.18
12626;BME280;6378;42.684;23.372;2023-07-29T12:09:22;94775.03;;;31.71;27.07
12626;BME280;6378;42.684;23.372;2023-07-29T12:11:48;94769.00;;;31.98;26.21
12626;BME280;6378;42.684;23.372;2023-07-29T12:14:16;94755.19;;;31.83;26.52
12626;BME280;6378;42.684;23.372;2023-07-29T12:16:47;94748.47;;;31.50;26.66
12626;BME280;6378;42.684;23.372;2023-07-29T12:19:13;94753.31;;;31.75;26.52
12626;BME280;6378;42.684;23.372;2023-07-29T12:21:41;94760.19;;;32.31;26.52
12626;BME280;6378;42.684;23.372;2023-07-29T12:24:06;94728.94;;;32.47;26.43
12626;BME280;6378;42.684;23.372;2023-07-29T12:26:33;94746.41;;;32.48;26.13
12626;BME280;6378;42.684;23.372;2023-07-29T12:28:58;94752.91;;;32.34;25.82
12626;BME280;6378;42.684;23.372;2023-07-29T12:31:33;94760.84;;;32.46;26.24
12626;BME280;6378;42.684;23.372;2023-07-29T12:33:58;94747.63;;;32.73;26.34
12626;BME280;6378;42.684;23.372;2023-07-29T12:36:45;94746.69;;;32.81;25.28
12626;BME280;6378;42.684;23.372;2023-07-29T12:39:23;94740.84;;;32.79;26.54
12626;BME280;6378;42.684;23.372;2023-07-29T12:41:51;94749.47;;;33.18;25.84
12626;BME280;6378;42.684;23.372;2023-07-29T12:44:17;94744.03;;;33.09;25.49
12626;BME280;6378;42.684;23.372;2023-07-29T12:46:43;94740.97;;;33.01;24.86
12626;BME280;6378;42.684;23.372;2023-07-29T12:49:08;94738.09;;;32.90;25.57
12626;BME280;6378;42.684;23.372;2023-07-29T12:51:34;94736.00;;;32.80;25.69
12626;BME280;6378;42.684;23.372;2023-07-29T12:53:59;94738.88;;;32.91;26.51
12626;BME280;6378;42.684;23.372;2023-07-29T12:56:25;94735.75;;;32.78;25.81
12626;BME280;6378;42.684;23.372;2023-07-29T12:58:51;94740.44;;;32.29;24.70
12626;BME280;6378;42.684;23.372;2023-07-29T13:01:16;94734.47;;;32.42;24.97
12626;BME280;6378;42.684;23.372;2023-07-29T13:03:47;94726.31;;;32.64;25.07
12626;BME280;6378;42.684;23.372;2023-07-29T13:06:13;94737.63;;;32.92;24.92
12626;BME280;6378;42.684;23.372;2023-07-29T13:08:38;94729.34;;;33.08;24.50
12626;BME280;6378;42.684;23.372;2023-07-29T13:11:04;94738.31;;;33.18;24.57
12626;BME280;6378;42.684;23.372;2023-07-29T13:13:30;94714.72;;;32.45;24.31
12626;BME280;6378;42.684;23.372;2023-07-29T13:15:56;94726.91;;;32.79;25.11